createdAt,value
2017-09-26T00:01:49.267Z,63.70
2017-09-26T00:04:17.534Z,63.40
2017-09-26T00:06:45.015Z,63.40
2017-09-26T00:09:12.495Z,62.80
2017-09-26T00:11:39.972Z,63.20
2017-09-26T00:14:08.220Z,63.90
2017-09-26T00:16:35.695Z,63.90
2017-09-26T00:19:03.271Z,64.20
2017-09-26T00:21:30.747Z,64.30
2017-09-26T00:23:58.231Z,64.30
2017-09-26T00:26:25.711Z,64.30
2017-09-26T00:28:53.196Z,64.00
2017-09-26T00:31:21.442Z,63.90
2017-09-26T00:33:48.918Z,63.90
2017-09-26T00:36:17.155Z,63.80
2017-09-26T00:38:44.635Z,63.70
2017-09-26T00:41:12.104Z,64.20
2017-09-26T00:43:39.588Z,64.40
2017-09-26T00:46:07.063Z,64.20
2017-09-26T00:48:34.543Z,64.20
2017-09-26T00:51:02.015Z,64.00
2017-09-26T00:53:30.279Z,64.30
2017-09-26T00:55:58.520Z,64.90
2017-09-26T00:58:26.007Z,64.90
2017-09-26T01:00:53.483Z,65.10
2017-09-26T01:03:20.971Z,65.30
2017-09-26T01:05:59.112Z,65.20
2017-09-26T01:08:27.480Z,65.10
2017-09-26T01:10:54.975Z,65.10
2017-09-26T01:13:23.260Z,65.30
2017-09-26T01:15:50.802Z,65.30
2017-09-26T01:18:18.340Z,65.50
2017-09-26T01:20:46.183Z,65.70
2017-09-26T01:23:14.423Z,65.80
2017-09-26T01:25:41.903Z,65.80
2017-09-26T01:28:09.439Z,65.70
2017-09-26T01:30:37.715Z,65.40
2017-09-26T01:33:05.188Z,65.40
2017-09-26T01:35:32.677Z,65.30
2017-09-26T01:38:00.942Z,65.10
2017-09-26T01:40:29.189Z,65.10
2017-09-26T01:42:56.756Z,65.10
2017-09-26T01:45:24.240Z,65.20
2017-09-26T01:47:51.715Z,65.60
2017-09-26T01:50:19.199Z,65.60
2017-09-26T01:52:46.675Z,65.40
2017-09-26T01:55:14.170Z,65.60
2017-09-26T01:57:43.143Z,65.90
2017-09-26T02:00:11.407Z,66.10
2017-09-26T02:02:39.716Z,66.30
2017-09-26T02:05:07.206Z,66.30
2017-09-26T02:07:35.451Z,66.30
2017-09-26T02:10:02.947Z,66.30
2017-09-26T02:12:30.427Z,66.40
2017-09-26T02:14:57.901Z,65.90
2017-09-26T02:17:26.176Z,66.20
2017-09-26T02:19:53.652Z,66.20
2017-09-26T02:22:21.138Z,66.20
2017-09-26T02:24:48.613Z,66.30
2017-09-26T02:27:16.149Z,66.00
2017-09-26T02:29:43.628Z,65.80
2017-09-26T02:32:11.139Z,65.80
2017-09-26T02:34:38.729Z,66.20
2017-09-26T02:37:06.223Z,66.00
2017-09-26T02:39:34.468Z,66.10
2017-09-26T02:42:02.715Z,66.80
2017-09-26T02:44:30.188Z,66.10
2017-09-26T02:46:57.691Z,66.10
2017-09-26T02:49:25.212Z,66.00
2017-09-26T02:51:52.711Z,65.90
2017-09-26T02:54:20.951Z,67.20
2017-09-26T02:56:48.435Z,67.30
2017-09-26T02:59:15.908Z,68.30
2017-09-26T03:01:43.403Z,68.70
2017-09-26T03:04:11.704Z,68.30
2017-09-26T03:06:39.324Z,68.30
2017-09-26T03:09:06.884Z,68.00
2017-09-26T03:11:34.358Z,68.20
2017-09-26T03:14:01.856Z,68.40
2017-09-26T03:16:29.339Z,68.10
2017-09-26T03:18:56.843Z,68.00
2017-09-26T03:21:24.391Z,68.00
2017-09-26T03:23:51.879Z,67.80
2017-09-26T03:26:19.350Z,67.60
2017-09-26T03:28:46.934Z,67.60
2017-09-26T03:31:14.407Z,68.00
2017-09-26T03:33:41.891Z,68.10
2017-09-26T03:36:10.138Z,68.20
2017-09-26T03:38:37.620Z,68.20
2017-09-26T03:41:05.101Z,68.50
2017-09-26T03:43:32.603Z,69.00
2017-09-26T03:46:00.076Z,69.20
2017-09-26T03:48:27.595Z,69.70
2017-09-26T03:50:55.079Z,69.00
2017-09-26T03:53:22.563Z,69.20
2017-09-26T03:55:50.803Z,69.60
2017-09-26T03:58:18.287Z,69.60
2017-09-26T04:00:45.768Z,69.70
2017-09-26T04:03:13.245Z,70.00
2017-09-26T04:05:40.732Z,70.20
2017-09-26T04:08:08.207Z,70.20
2017-09-26T04:10:35.690Z,70.20
2017-09-26T04:13:03.931Z,70.80
2017-09-26T04:15:31.411Z,70.20
2017-09-26T04:17:58.900Z,71.20
2017-09-26T04:20:26.387Z,71.10
2017-09-26T04:22:53.864Z,70.70
2017-09-26T04:25:21.351Z,70.70
2017-09-26T04:27:48.851Z,70.70
2017-09-26T04:30:16.331Z,70.70
2017-09-26T04:32:43.805Z,70.70
2017-09-26T04:35:12.125Z,70.70
2017-09-26T04:37:39.612Z,70.60
2017-09-26T04:40:07.095Z,70.40
2017-09-26T04:42:34.563Z,70.20
2017-09-26T04:45:02.052Z,70.20
2017-09-26T04:47:29.539Z,70.00
2017-09-26T04:49:57.023Z,69.70
2017-09-26T04:52:25.263Z,70.00
2017-09-26T04:54:52.764Z,70.00
2017-09-26T04:57:20.280Z,70.10
2017-09-26T04:59:47.815Z,70.30
2017-09-26T05:02:16.059Z,70.40
2017-09-26T05:04:43.484Z,70.30
2017-09-26T05:07:10.928Z,70.10
2017-09-26T05:09:38.365Z,70.20
2017-09-26T05:12:05.908Z,70.20
2017-09-26T05:14:33.340Z,70.10
2017-09-26T05:17:00.779Z,70.20
2017-09-26T05:19:28.232Z,70.30
2017-09-26T05:21:55.676Z,70.30
2017-09-26T05:24:23.215Z,70.30
2017-09-26T05:26:50.841Z,70.30
2017-09-26T05:29:18.260Z,70.20
2017-09-26T05:31:45.704Z,70.20
2017-09-26T05:34:13.244Z,70.00
2017-09-26T05:36:41.440Z,69.70
2017-09-26T05:39:08.903Z,69.70
2017-09-26T05:41:36.346Z,69.80
2017-09-26T05:44:04.651Z,69.80
2017-09-26T05:46:32.908Z,69.80
2017-09-26T05:49:00.345Z,69.80
2017-09-26T05:51:28.567Z,69.80
2017-09-26T05:53:56.024Z,69.80
2017-09-26T05:56:23.515Z,69.70
2017-09-26T05:58:50.960Z,70.40
2017-09-26T06:01:18.388Z,70.00
2017-09-26T06:03:46.024Z,70.00
2017-09-26T06:06:14.213Z,70.00
2017-09-26T06:08:41.776Z,69.90
2017-09-26T06:11:09.208Z,69.30
2017-09-26T06:13:36.672Z,69.00
2017-09-26T06:16:04.110Z,68.80
2017-09-26T06:18:32.048Z,67.90
2017-09-26T06:20:59.476Z,67.80
2017-09-26T06:23:26.919Z,67.70
2017-09-26T06:25:54.356Z,67.80
2017-09-26T06:28:22.024Z,67.40
2017-09-26T06:30:49.456Z,66.90
2017-09-26T06:33:16.910Z,67.10
2017-09-26T06:35:44.347Z,67.00
2017-09-26T06:38:11.845Z,67.00
2017-09-26T06:40:40.044Z,66.50
2017-09-26T06:43:07.499Z,66.50
2017-09-26T06:45:34.936Z,66.80
2017-09-26T06:48:02.404Z,66.60
2017-09-26T06:50:29.843Z,66.70
2017-09-26T06:52:57.284Z,66.40
2017-09-26T06:55:24.727Z,65.90
2017-09-26T06:57:52.168Z,65.60
2017-09-26T07:00:19.611Z,65.10
2017-09-26T07:02:47.045Z,64.90
2017-09-26T07:05:14.480Z,65.00
2017-09-26T07:07:41.912Z,64.60
2017-09-26T07:10:09.357Z,64.30
2017-09-26T07:12:36.797Z,63.90
2017-09-26T07:15:04.240Z,63.60
2017-09-26T07:17:31.675Z,62.10
2017-09-26T07:19:59.160Z,61.20
2017-09-26T07:22:26.705Z,60.70
2017-09-26T07:24:54.241Z,59.70
2017-09-26T07:27:21.732Z,58.80
2017-09-26T07:29:49.180Z,58.60
2017-09-26T07:32:16.624Z,58.10
2017-09-26T07:34:44.083Z,57.40
2017-09-26T07:37:11.715Z,56.40
2017-09-26T07:39:39.153Z,55.90
2017-09-26T07:42:06.588Z,55.70
2017-09-26T07:44:34.822Z,55.10
2017-09-26T07:47:02.429Z,55.10
2017-09-26T07:49:30.065Z,54.40
2017-09-26T07:51:57.520Z,53.60
2017-09-26T07:54:24.970Z,53.30
2017-09-26T07:56:52.411Z,52.40
2017-09-26T07:59:19.950Z,51.90
2017-09-26T08:01:47.399Z,51.40
2017-09-26T08:04:15.303Z,50.30
2017-09-26T08:06:43.263Z,49.70
2017-09-26T08:09:11.927Z,48.70
2017-09-26T08:11:40.142Z,48.40
2017-09-26T08:14:07.572Z,48.40
2017-09-26T08:16:35.040Z,48.60
2017-09-26T08:19:02.484Z,47.50
2017-09-26T08:21:30.035Z,47.50
2017-09-26T08:23:58.260Z,47.00
2017-09-26T08:26:25.742Z,47.10
2017-09-26T08:28:53.164Z,47.60
2017-09-26T08:31:20.604Z,47.70
2017-09-26T08:33:48.032Z,47.60
2017-09-26T08:36:15.483Z,47.60
2017-09-26T08:38:42.915Z,47.40
2017-09-26T08:41:10.368Z,46.80
2017-09-26T08:43:37.831Z,47.50
2017-09-26T08:46:05.263Z,46.80
2017-09-26T08:48:32.700Z,46.90
2017-09-26T08:51:00.143Z,47.20
2017-09-26T08:53:27.587Z,47.20
2017-09-26T08:55:55.022Z,48.00
2017-09-26T08:58:23.104Z,47.90
2017-09-26T09:00:50.621Z,47.40
2017-09-26T09:03:18.046Z,47.30
2017-09-26T09:05:45.476Z,48.60
2017-09-26T09:08:12.916Z,48.90
2017-09-26T09:10:40.347Z,49.00
2017-09-26T09:13:08.557Z,50.60
2017-09-26T09:15:35.993Z,50.60
2017-09-26T09:18:03.427Z,51.00
2017-09-26T09:20:30.900Z,50.80
2017-09-26T09:22:58.444Z,51.00
2017-09-26T09:25:25.892Z,51.00
2017-09-26T09:27:53.328Z,50.50
2017-09-26T09:30:20.760Z,50.60
2017-09-26T09:32:48.210Z,50.60
2017-09-26T09:35:15.652Z,50.20
2017-09-26T09:37:43.142Z,50.30
2017-09-26T09:40:11.337Z,50.20
2017-09-26T09:42:38.772Z,50.20
2017-09-26T09:45:06.261Z,50.10
2017-09-26T09:47:33.688Z,49.60
2017-09-26T09:50:01.123Z,49.50
2017-09-26T09:52:28.561Z,48.70
2017-09-26T09:54:56.000Z,48.30
2017-09-26T09:57:23.436Z,47.90
2017-09-26T09:59:50.880Z,48.80
2017-09-26T10:02:18.307Z,48.30
2017-09-26T10:04:45.748Z,48.70
2017-09-26T10:07:13.181Z,48.00
2017-09-26T10:09:40.792Z,49.60
2017-09-26T10:12:08.319Z,49.10
2017-09-26T10:14:35.751Z,47.50
2017-09-26T10:17:03.208Z,48.20
2017-09-26T10:19:30.652Z,47.80
2017-09-26T10:21:58.124Z,46.20
2017-09-26T10:24:26.347Z,47.30
2017-09-26T10:26:53.787Z,47.30
2017-09-26T10:29:21.336Z,47.40
2017-09-26T10:31:48.787Z,46.50
2017-09-26T10:34:16.251Z,47.00
2017-09-26T10:36:43.763Z,45.40
2017-09-26T10:39:11.203Z,46.30
2017-09-26T10:41:38.679Z,47.30
2017-09-26T10:44:06.198Z,47.50
2017-09-26T10:46:33.636Z,48.20
2017-09-26T10:49:01.072Z,48.40
2017-09-26T10:51:28.513Z,48.00
2017-09-26T10:53:55.943Z,47.90
2017-09-26T10:56:23.415Z,48.20
2017-09-26T10:58:50.881Z,49.60
2017-09-26T11:01:18.296Z,50.30
2017-09-26T11:03:45.723Z,50.00
2017-09-26T11:06:13.180Z,50.50
2017-09-26T11:08:40.607Z,49.90
2017-09-26T11:11:08.080Z,49.80
2017-09-26T11:13:35.608Z,49.60
2017-09-26T11:16:03.055Z,49.20
2017-09-26T11:18:30.488Z,49.50
2017-09-26T11:20:57.932Z,49.80
2017-09-26T11:23:25.367Z,48.60
2017-09-26T11:25:52.808Z,49.30
2017-09-26T11:28:20.668Z,49.50
2017-09-26T11:30:48.215Z,50.10
2017-09-26T11:33:15.652Z,50.00
2017-09-26T11:35:43.096Z,49.90
2017-09-26T11:38:10.536Z,48.00
2017-09-26T11:40:37.967Z,49.50
2017-09-26T11:43:05.433Z,49.90
2017-09-26T11:45:32.880Z,49.30
2017-09-26T11:48:00.704Z,48.80
2017-09-26T11:50:28.119Z,49.50
2017-09-26T11:52:55.594Z,49.70
2017-09-26T11:55:23.219Z,49.30
2017-09-26T11:57:50.648Z,49.60
2017-09-26T12:00:18.075Z,49.70
2017-09-26T12:02:46.347Z,49.80
2017-09-26T12:05:14.543Z,49.70
2017-09-26T12:07:42.003Z,49.60
2017-09-26T12:10:09.457Z,49.40
2017-09-26T12:12:36.903Z,49.40
2017-09-26T12:15:04.432Z,50.30
2017-09-26T12:17:31.968Z,49.50
2017-09-26T12:19:59.403Z,49.30
2017-09-26T12:22:26.844Z,49.60
2017-09-26T12:24:54.291Z,50.00
2017-09-26T12:27:21.770Z,51.40
2017-09-26T12:29:49.186Z,51.00
2017-09-26T12:32:16.615Z,51.10
2017-09-26T12:34:44.053Z,51.40
2017-09-26T12:37:11.487Z,52.10
2017-09-26T12:39:38.939Z,51.80
2017-09-26T12:42:06.355Z,52.30
2017-09-26T12:44:33.844Z,52.80
2017-09-26T12:47:01.289Z,53.00
2017-09-26T12:49:28.732Z,53.40
2017-09-26T12:51:56.163Z,52.50
2017-09-26T12:54:23.609Z,53.50
2017-09-26T12:56:51.059Z,53.40
2017-09-26T12:59:18.495Z,54.00
2017-09-26T13:01:45.941Z,53.30
2017-09-26T13:04:13.396Z,53.50
2017-09-26T13:06:40.849Z,53.60
2017-09-26T13:09:08.276Z,53.30
2017-09-26T13:11:36.509Z,53.40
2017-09-26T13:14:03.937Z,53.40
2017-09-26T13:16:31.364Z,52.80
2017-09-26T13:18:58.807Z,52.90
2017-09-26T13:21:27.008Z,52.10
2017-09-26T13:23:54.561Z,52.20
2017-09-26T13:26:22.008Z,52.30
2017-09-26T13:28:49.527Z,52.50
2017-09-26T13:31:16.992Z,51.90
2017-09-26T13:33:44.661Z,52.50
2017-09-26T13:36:12.090Z,51.40
2017-09-26T13:38:41.027Z,52.40
2017-09-26T13:41:08.477Z,52.40
2017-09-26T13:43:36.645Z,52.50
2017-09-26T13:46:04.889Z,53.50
2017-09-26T13:48:32.336Z,52.70
2017-09-26T13:50:59.815Z,52.50
2017-09-26T13:53:27.256Z,52.30
2017-09-26T13:55:54.728Z,52.70
2017-09-26T13:58:23.330Z,52.00
2017-09-26T14:00:51.523Z,52.00
2017-09-26T14:03:18.972Z,52.00
2017-09-26T14:05:46.427Z,51.20
2017-09-26T14:08:13.916Z,51.80
2017-09-26T14:10:41.356Z,51.80
2017-09-26T14:13:08.844Z,52.00
2017-09-26T14:15:36.291Z,51.90
2017-09-26T14:18:03.735Z,51.30
2017-09-26T14:20:31.175Z,50.90
2017-09-26T14:22:58.604Z,50.10
2017-09-26T14:25:26.101Z,50.60
2017-09-26T14:27:53.595Z,49.50
2017-09-26T14:30:21.031Z,48.80
2017-09-26T14:32:48.479Z,49.30
2017-09-26T14:35:15.912Z,49.60
2017-09-26T14:37:43.448Z,49.30
2017-09-26T14:40:10.920Z,48.20
2017-09-26T14:42:38.360Z,47.90
2017-09-26T14:45:05.805Z,48.10
2017-09-26T14:47:33.288Z,48.90
2017-09-26T14:50:01.476Z,48.50
2017-09-26T14:52:28.920Z,48.50
2017-09-26T14:54:56.352Z,48.20
2017-09-26T14:57:23.795Z,47.50
2017-09-26T14:59:51.227Z,47.50
2017-09-26T15:02:19.441Z,48.20
2017-09-26T15:04:46.963Z,48.30
2017-09-26T15:07:14.412Z,48.50
2017-09-26T15:09:41.856Z,49.60
2017-09-26T15:12:09.298Z,49.90
2017-09-26T15:14:36.735Z,50.20
2017-09-26T15:17:04.630Z,50.30
2017-09-26T15:19:32.076Z,50.60
2017-09-26T15:22:00.278Z,49.90
2017-09-26T15:24:28.436Z,49.90
2017-09-26T15:26:55.855Z,50.10
2017-09-26T15:29:23.347Z,50.10
2017-09-26T15:31:50.888Z,50.40
2017-09-26T15:34:18.338Z,50.20
2017-09-26T15:36:45.784Z,50.40
2017-09-26T15:39:13.236Z,50.20
2017-09-26T15:41:40.684Z,49.80
2017-09-26T15:44:08.920Z,50.30
2017-09-26T15:46:36.380Z,50.30
2017-09-26T15:49:03.899Z,50.40
2017-09-26T15:51:31.576Z,50.00
2017-09-26T15:53:59.012Z,50.20
2017-09-26T15:56:26.552Z,50.50
2017-09-26T15:58:54.090Z,50.30
2017-09-26T16:01:21.555Z,50.70
2017-09-26T16:03:49.788Z,50.20
2017-09-26T16:06:17.233Z,50.20
2017-09-26T16:08:44.816Z,50.60
2017-09-26T16:11:13.023Z,51.40
2017-09-26T16:13:40.479Z,51.40
2017-09-26T16:16:07.923Z,51.20
2017-09-26T16:18:35.360Z,51.80
2017-09-26T16:21:02.888Z,51.50
2017-09-26T16:23:30.319Z,51.60
2017-09-26T16:25:57.769Z,51.50
2017-09-26T16:28:25.207Z,51.70
2017-09-26T16:30:52.649Z,52.00
2017-09-26T16:33:20.128Z,52.20
2017-09-26T16:35:47.576Z,52.30
2017-09-26T16:38:15.015Z,52.40
2017-09-26T16:40:42.555Z,52.40
2017-09-26T16:43:10.008Z,52.10
2017-09-26T16:45:37.547Z,51.80
2017-09-26T16:48:04.988Z,52.80
2017-09-26T16:50:32.464Z,52.00
2017-09-26T16:53:00.671Z,52.20
2017-09-26T16:55:28.119Z,52.20
2017-09-26T16:57:55.555Z,52.40
2017-09-26T17:00:23.008Z,52.00
2017-09-26T17:02:50.448Z,52.30
2017-09-26T17:05:17.896Z,52.60
2017-09-26T17:07:45.343Z,52.40
2017-09-26T17:10:12.800Z,52.70
2017-09-26T17:12:40.279Z,53.30
2017-09-26T17:15:07.802Z,53.80
2017-09-26T17:17:35.330Z,54.00
2017-09-26T17:20:02.768Z,54.30
2017-09-26T17:22:30.287Z,53.70
2017-09-26T17:24:58.429Z,53.80
2017-09-26T17:27:26.984Z,53.90
2017-09-26T17:29:54.472Z,54.50
2017-09-26T17:32:21.960Z,55.20
2017-09-26T17:34:49.397Z,56.90
2017-09-26T17:37:17.622Z,57.80
2017-09-26T17:39:45.065Z,57.80
2017-09-26T17:42:12.507Z,58.30
2017-09-26T17:44:39.956Z,58.50
2017-09-26T17:47:07.400Z,58.60
2017-09-26T17:49:34.943Z,59.00
2017-09-26T17:52:02.485Z,59.30
2017-09-26T17:54:30.024Z,59.30
2017-09-26T17:56:57.469Z,59.80
2017-09-26T17:59:24.952Z,60.30
2017-09-26T18:01:52.400Z,61.50
2017-09-26T18:04:19.841Z,61.30
2017-09-26T18:06:47.349Z,61.60
2017-09-26T18:09:15.563Z,62.10
2017-09-26T18:11:43.027Z,61.70
2017-09-26T18:14:10.476Z,62.30
2017-09-26T18:16:37.917Z,63.00
2017-09-26T18:19:05.403Z,62.80
2017-09-26T18:21:32.901Z,62.70
2017-09-26T18:24:00.344Z,63.20
2017-09-26T18:26:27.841Z,63.30
2017-09-26T18:28:56.168Z,63.20
2017-09-26T18:31:23.714Z,63.20
2017-09-26T18:33:51.152Z,63.10
2017-09-26T18:36:18.588Z,63.00
2017-09-26T18:38:46.027Z,63.00
2017-09-26T18:41:13.488Z,63.00
2017-09-26T18:43:41.695Z,63.50
2017-09-26T18:46:09.196Z,63.60
2017-09-26T18:48:36.732Z,63.30
2017-09-26T18:51:04.689Z,63.30
2017-09-26T18:53:32.992Z,63.70
2017-09-26T18:56:01.287Z,64.00
2017-09-26T18:58:28.751Z,64.00
2017-09-26T19:00:56.250Z,64.30
2017-09-26T19:03:23.695Z,64.00
2017-09-26T19:05:51.188Z,63.60
2017-09-26T19:08:18.667Z,63.40
2017-09-26T19:10:46.918Z,63.30
2017-09-26T19:13:15.162Z,63.20
2017-09-26T19:15:42.628Z,63.20
2017-09-26T19:18:10.820Z,62.40
2017-09-26T19:20:38.313Z,62.40
2017-09-26T19:23:05.795Z,62.40
2017-09-26T19:25:33.299Z,62.90
2017-09-26T19:28:00.728Z,63.00
2017-09-26T19:30:28.251Z,63.00
2017-09-26T19:32:56.449Z,63.10
2017-09-26T19:35:23.939Z,63.10
2017-09-26T19:37:52.138Z,63.30
2017-09-26T19:40:19.576Z,63.20
2017-09-26T19:42:47.080Z,63.10
2017-09-26T19:45:15.340Z,63.50
2017-09-26T19:47:42.819Z,62.70
2017-09-26T19:50:10.252Z,62.40
2017-09-26T19:52:39.659Z,62.90
2017-09-26T19:55:07.157Z,62.90
2017-09-26T19:57:34.632Z,62.90
2017-09-26T20:00:02.138Z,62.70
2017-09-26T20:02:29.618Z,62.50
2017-09-26T20:04:57.096Z,62.70
2017-09-26T20:07:24.598Z,63.00
2017-09-26T20:09:52.839Z,63.10
2017-09-26T20:12:20.412Z,63.10
2017-09-26T20:14:47.892Z,63.40
2017-09-26T20:17:15.423Z,63.50
2017-09-26T20:19:42.939Z,63.70
2017-09-26T20:22:11.173Z,63.80
2017-09-26T20:24:38.670Z,63.80
2017-09-26T20:27:06.099Z,63.60
2017-09-26T20:29:33.568Z,63.70
2017-09-26T20:32:01.008Z,63.70
2017-09-26T20:34:28.456Z,63.60
2017-09-26T20:36:56.939Z,63.70
2017-09-26T20:39:25.179Z,63.60
2017-09-26T20:41:52.648Z,63.60
2017-09-26T20:44:20.085Z,63.40
2017-09-26T20:46:47.535Z,63.70
2017-09-26T20:49:15.780Z,63.60
2017-09-26T20:51:43.234Z,63.60
2017-09-26T20:54:10.772Z,63.80
2017-09-26T20:56:38.238Z,63.90
2017-09-26T20:59:06.444Z,64.00
2017-09-26T21:01:33.876Z,64.00
2017-09-26T21:04:01.324Z,64.00
2017-09-26T21:06:28.781Z,64.10
2017-09-26T21:08:56.223Z,64.20
2017-09-26T21:11:23.670Z,64.20
2017-09-26T21:13:51.108Z,64.30
2017-09-26T21:16:18.555Z,64.40
2017-09-26T21:18:46.007Z,64.50
2017-09-26T21:21:13.444Z,64.80
2017-09-26T21:23:40.887Z,65.30
2017-09-26T21:26:08.343Z,65.60
2017-09-26T21:28:35.781Z,65.90
2017-09-26T21:31:03.218Z,65.80
2017-09-26T21:33:30.656Z,65.80
2017-09-26T21:35:58.123Z,65.70
2017-09-26T21:38:26.460Z,66.80
2017-09-26T21:40:53.888Z,66.90
2017-09-26T21:43:21.359Z,66.80
2017-09-26T21:45:48.905Z,66.80
2017-09-26T21:48:16.352Z,67.20
2017-09-26T21:50:43.788Z,66.80
2017-09-26T21:53:11.239Z,67.10
2017-09-26T21:55:38.679Z,67.20
2017-09-26T21:58:06.116Z,67.20
2017-09-26T22:00:33.572Z,67.20
2017-09-26T22:03:01.780Z,67.80
2017-09-26T22:05:29.307Z,67.70
2017-09-26T22:07:57.648Z,68.30
2017-09-26T22:10:25.086Z,68.30
2017-09-26T22:12:53.284Z,68.30
2017-09-26T22:15:20.734Z,68.20
2017-09-26T22:17:48.164Z,68.50
2017-09-26T22:20:15.617Z,68.50
2017-09-26T22:22:43.063Z,68.30
2017-09-26T22:25:10.546Z,68.20
2017-09-26T22:27:37.988Z,68.40
2017-09-26T22:30:05.441Z,68.30
2017-09-26T22:32:32.894Z,68.30
2017-09-26T22:35:01.108Z,68.40
2017-09-26T22:37:28.566Z,68.40
2017-09-26T22:39:56.003Z,68.40
2017-09-26T22:42:23.443Z,68.40
2017-09-26T22:44:50.896Z,68.40
2017-09-26T22:47:18.327Z,68.60
2017-09-26T22:49:45.785Z,68.70
2017-09-26T22:52:13.223Z,68.40
2017-09-26T22:54:40.660Z,68.30
2017-09-26T22:57:08.112Z,68.20
2017-09-26T22:59:35.555Z,68.00
2017-09-26T23:02:03.100Z,67.70
2017-09-26T23:04:30.540Z,68.00
2017-09-26T23:06:57.988Z,67.90
2017-09-26T23:09:25.442Z,68.50
2017-09-26T23:11:52.976Z,69.50
2017-09-26T23:14:20.412Z,70.80
2017-09-26T23:16:47.861Z,72.60
2017-09-26T23:19:15.299Z,72.90
2017-09-26T23:21:42.736Z,73.60
2017-09-26T23:24:10.198Z,72.90
2017-09-26T23:26:37.636Z,73.50
2017-09-26T23:29:05.077Z,74.60
2017-09-26T23:31:32.552Z,73.90
2017-09-26T23:45:23.828Z,74.60
2017-09-26T23:47:51.309Z,74.30
2017-09-26T23:50:19.501Z,73.40
2017-09-26T23:52:46.976Z,73.40
2017-09-26T23:55:14.527Z,73.30
2017-09-26T23:57:41.968Z,73.30
